Главная страница
METAR-TAF:

METAR-TAF

Аэропорты :

Уральск, Казахстан

широта: 51-15N, долгота: 051-17E, высота над уровнем моря: 36 м

Текущие метеонаблюдения

Эта сводка был подготовлена 36 минут назад, в 16:00 UTC
Ветер 2 Узел переменных направлений
Температура 28°C
Влажность 37%
Давление 1009 hPa
Видимость 10 км и более
Нет облачности ниже 1500 м, и нет кучево-дождевой облачности

METAR: UARR 231600Z VRB01MPS CAVOK 28/12 Q1009 R22/CLRD70 NOSIG RMK QFE753/1004

Время: 21:36 (16:36 UTC)

Прогноз

Эта сводка был подготовлена 2 часа и 35 минут назад, в 14:01 UTC
Прогноз действительный с 23-го 15 UTC до 23-го 24 UTC
Ветер 10 Узел от западно-северо-западный
Видимость 10 км и более
Отдельные облака на высоте 3300 фута

TAF: UARR 231401Z 2315/2324 30005MPS 9999 SCT033

Метеонаблюдения и прогнозы для более 4000 аэропортов (сводки METAR и TAF).

Имеющиеся станции представлены на карте желтыми и красными точками.

Чтобы увидеть название станции, наведите на нее мышь.

Затем щелкните, чтобы увидеть метеонаблюдения и метеопрогнозы.

Управление картой: чтобы увеличить масштаб, щелкните зеленые кнопки с черным крестиком; чтобы уменьшить масштаб, щелкните зеленую кнопку с тире; для просмотра соседних карт щелкайте зеленые стрелки.


METAR-TAF: